createdAt,value
2023-03-04T00:00:04.036Z,6.05
2023-03-04T00:02:04.721Z,4.89
2023-03-04T00:03:04.441Z,5.97
2023-03-04T00:04:04.292Z,5.57
2023-03-04T00:05:04.166Z,4.55
2023-03-04T00:06:04.374Z,4.27
2023-03-04T00:07:04.247Z,6.61
2023-03-04T00:08:03.840Z,4.11
2023-03-04T00:09:03.850Z,5.04
2023-03-04T00:10:03.794Z,6.34
2023-03-04T00:11:03.858Z,3.97
2023-03-04T00:12:03.731Z,4.71
2023-03-04T00:13:04.546Z,4.44
2023-03-04T00:14:04.349Z,5.23
2023-03-04T00:15:04.262Z,4.41
2023-03-04T00:16:04.095Z,4.48
2023-03-04T00:17:03.908Z,5.22
2023-03-04T00:18:03.585Z,4.42
2023-03-04T00:19:04.483Z,5.15
2023-03-04T00:20:04.248Z,4.82
2023-03-04T00:21:04.047Z,4.74
2023-03-04T00:22:03.826Z,4.46
2023-03-04T00:23:04.025Z,6.02
2023-03-04T00:24:03.811Z,4.56
2023-03-04T00:25:03.686Z,4.84
2023-03-04T00:26:04.333Z,3.94
2023-03-04T00:27:04.068Z,5
2023-03-04T00:28:04.006Z,5.29
2023-03-04T00:29:03.819Z,4.58
2023-03-04T00:30:04.846Z,5.63
2023-03-04T00:31:04.237Z,4.87
2023-03-04T00:32:03.917Z,5.75
2023-03-04T00:33:04.607Z,5.34
2023-03-04T00:34:04.555Z,7.7
2023-03-04T00:35:04.471Z,5.38
2023-03-04T00:36:04.394Z,5.24
2023-03-04T00:37:04.598Z,5.7
2023-03-04T00:38:04.388Z,8.5
2023-03-04T00:39:04.434Z,4.61
2023-03-04T00:40:04.554Z,4.61
2023-03-04T00:41:03.729Z,6.77
2023-03-04T00:42:03.533Z,4.84
2023-03-04T00:43:03.650Z,5.69
2023-03-04T00:44:04.517Z,4.76
2023-03-04T00:45:04.414Z,3.55
2023-03-04T00:46:04.768Z,4.48
2023-03-04T00:47:04.241Z,4.18
2023-03-04T00:48:03.999Z,4.54
2023-03-04T00:49:03.630Z,4.92
2023-03-04T00:50:03.758Z,4.95
2023-03-04T00:51:03.807Z,6.68
2023-03-04T00:52:03.863Z,3.69
2023-03-04T00:53:03.839Z,4.29
2023-03-04T00:54:03.722Z,3.1
2023-03-04T00:55:03.723Z,4.62
2023-03-04T00:56:04.130Z,3.54
2023-03-04T00:57:04.087Z,3.56
2023-03-04T00:58:04.057Z,3.46
2023-03-04T00:59:03.863Z,5.54
2023-03-04T01:00:04.238Z,3.11
2023-03-04T01:01:04.184Z,2.98
2023-03-04T01:02:04.449Z,3.92
2023-03-04T01:03:04.270Z,4.1
2023-03-04T01:04:04.192Z,4.28
2023-03-04T01:05:03.946Z,3.35
2023-03-04T01:06:04.068Z,3.97
2023-03-04T01:07:04.108Z,4.73
2023-03-04T01:08:04.036Z,4.15
2023-03-04T01:09:03.731Z,4.61
2023-03-04T01:10:03.804Z,5.49
2023-03-04T01:11:04.021Z,3.4
2023-03-04T01:12:03.752Z,4.8
2023-03-04T01:13:04.520Z,3.9
2023-03-04T01:14:04.165Z,5.15
2023-03-04T01:15:04.044Z,4.44
2023-03-04T01:16:04.198Z,4
2023-03-04T01:17:04.327Z,4.47
2023-03-04T01:18:04.147Z,3.55
2023-03-04T01:19:04.018Z,3.54
2023-03-04T01:20:03.914Z,3.2
2023-03-04T01:21:04.386Z,5.26
2023-03-04T01:22:03.891Z,3.65
2023-03-04T01:23:03.885Z,4.91
2023-03-04T01:24:03.863Z,6.22
2023-03-04T01:25:03.481Z,4.21
2023-03-04T01:26:03.896Z,5.42
2023-03-04T01:27:03.756Z,4.97
2023-03-04T01:28:04.684Z,4.17
2023-03-04T01:29:04.312Z,4.94
2023-03-04T01:30:04.336Z,3.87
2023-03-04T01:31:04.126Z,3.87
2023-03-04T01:32:03.892Z,3.54
2023-03-04T01:33:03.652Z,5.61
2023-03-04T01:34:04.509Z,4.76
2023-03-04T01:35:04.610Z,5.39
2023-03-04T01:36:03.778Z,5.44
2023-03-04T01:37:03.636Z,4.35
2023-03-04T01:38:04.937Z,5.72
2023-03-04T01:39:04.679Z,7.14
2023-03-04T01:40:04.550Z,5.31
2023-03-04T01:41:03.591Z,3.56
2023-03-04T01:42:04.570Z,4.9
2023-03-04T01:43:04.413Z,5.58
2023-03-04T01:44:04.339Z,5.19
2023-03-04T01:45:04.324Z,4.31
2023-03-04T01:46:04.418Z,6.1
2023-03-04T01:47:03.993Z,5.67
2023-03-04T01:48:03.932Z,4.39
2023-03-04T01:49:04.101Z,4.35
2023-03-04T01:50:03.836Z,4.88
2023-03-04T01:51:03.924Z,5.91
2023-03-04T01:52:03.839Z,6.46
2023-03-04T01:53:04.664Z,4.67
2023-03-04T01:54:04.373Z,6.62
2023-03-04T01:55:04.292Z,4.19
2023-03-04T01:56:04.495Z,3.95
2023-03-04T01:57:04.452Z,5.07
2023-03-04T01:58:04.300Z,4.05
2023-03-04T01:59:03.974Z,4.89
2023-03-04T02:00:04.231Z,4.85
2023-03-04T02:01:04.245Z,4.92
2023-03-04T02:02:03.879Z,4.25
2023-03-04T02:03:03.854Z,4.85
2023-03-04T02:04:03.874Z,3.79
2023-03-04T02:05:03.650Z,3.5
2023-03-04T02:06:03.829Z,6.91
2023-03-04T02:07:04.608Z,4.56
2023-03-04T02:08:04.490Z,3.87
2023-03-04T02:09:04.546Z,6.77
2023-03-04T02:10:04.524Z,5.51
2023-03-04T02:11:03.687Z,4.71
2023-03-04T02:12:04.611Z,2.85
2023-03-04T02:13:04.392Z,4.39
2023-03-04T02:14:04.371Z,3.37
2023-03-04T02:15:04.150Z,6.38
2023-03-04T02:16:04.571Z,6.89
2023-03-04T02:17:04.594Z,4.45
2023-03-04T02:18:04.341Z,6.55
2023-03-04T02:19:04.165Z,3.84
2023-03-04T02:20:04.171Z,6.41
2023-03-04T02:21:04.530Z,6.41
2023-03-04T02:22:04.472Z,3.41
2023-03-04T02:23:04.178Z,4.64
2023-03-04T02:24:04.072Z,5.81
2023-03-04T02:25:04.041Z,4
2023-03-04T02:26:04.389Z,6.15
2023-03-04T02:27:04.038Z,4.58
2023-03-04T02:28:03.952Z,6.78
2023-03-04T02:29:03.995Z,5.95
2023-03-04T02:30:04.099Z,5.82
2023-03-04T02:31:04.339Z,4.43
2023-03-04T02:32:04.313Z,5.29
2023-03-04T02:33:04.192Z,3.82
2023-03-04T02:34:03.812Z,5.2
2023-03-04T02:35:03.696Z,4.45
2023-03-04T02:36:03.885Z,5.4
2023-03-04T02:37:03.921Z,3.21
2023-03-04T02:38:03.967Z,5.84
2023-03-04T02:39:03.650Z,5.95
2023-03-04T02:40:04.320Z,6.55
2023-03-04T02:41:04.258Z,3.81
2023-03-04T02:42:04.300Z,4.36
2023-03-04T02:43:04.130Z,4.79
2023-03-04T02:44:04.085Z,3.6
2023-03-04T02:45:03.908Z,4.68
2023-03-04T02:46:03.619Z,3.91
2023-03-04T02:47:04.789Z,4.24
2023-03-04T02:48:04.386Z,6.42
2023-03-04T02:49:04.442Z,5.69
2023-03-04T02:50:04.212Z,5.8
2023-03-04T02:51:04.565Z,6.98
2023-03-04T02:52:04.500Z,5.24
2023-03-04T02:53:04.392Z,4.96
2023-03-04T02:54:04.425Z,3.34
2023-03-04T02:55:04.334Z,6.55
2023-03-04T02:56:03.886Z,4.73
2023-03-04T02:57:03.606Z,5.56
2023-03-04T02:58:04.556Z,4.88
2023-03-04T02:59:04.487Z,3.84
2023-03-04T03:00:04.441Z,4.47
2023-03-04T03:01:03.682Z,4.42
2023-03-04T03:02:04.616Z,5.32
2023-03-04T03:03:04.430Z,7.41
2023-03-04T03:04:04.145Z,3.46
2023-03-04T03:05:04.280Z,7.52
2023-03-04T03:06:04.531Z,4.72
2023-03-04T03:07:04.137Z,3.88
2023-03-04T03:08:03.834Z,4.72
2023-03-04T03:09:03.918Z,3.14
2023-03-04T03:10:03.822Z,2.63
2023-03-04T03:11:03.801Z,5.48
2023-03-04T03:12:03.584Z,5.48
2023-03-04T03:13:04.626Z,5.21
2023-03-04T03:14:04.209Z,4.97
2023-03-04T03:15:04.300Z,4.99
2023-03-04T03:16:04.381Z,2.91
2023-03-04T03:17:04.014Z,3.12
2023-03-04T03:18:03.931Z,5.72
2023-03-04T03:19:03.733Z,6.41
2023-03-04T03:20:04.711Z,5.11
2023-03-04T03:21:04.062Z,5.72
2023-03-04T03:22:03.885Z,5.96
2023-03-04T03:23:03.824Z,5.83
2023-03-04T03:24:04.525Z,4.15
2023-03-04T03:25:04.455Z,4.54
2023-03-04T03:26:04.502Z,3.98
2023-03-04T03:27:04.374Z,4.09
2023-03-04T03:28:04.267Z,4.97
2023-03-04T03:29:04.253Z,5.32
2023-03-04T03:30:04.044Z,3.16
2023-03-04T03:31:04.077Z,3.45
2023-03-04T03:32:04.113Z,2.95
2023-03-04T03:33:03.835Z,6.63
2023-03-04T03:34:04.605Z,6.31
2023-03-04T03:35:04.475Z,3.62
2023-03-04T03:36:04.150Z,6.79
2023-03-04T03:37:03.908Z,4.94
2023-03-04T03:38:03.743Z,4.94
2023-03-04T03:39:03.443Z,5.15
2023-03-04T03:40:04.462Z,5.71
2023-03-04T03:41:03.601Z,7.02
2023-03-04T03:42:04.420Z,3.12
2023-03-04T03:43:04.342Z,3.82
2023-03-04T03:44:03.959Z,6.44
2023-03-04T03:45:04.121Z,3.89
2023-03-04T03:46:04.560Z,3.28
2023-03-04T03:47:04.196Z,4.39
2023-03-04T03:48:04.037Z,6.05
2023-03-04T03:49:03.810Z,5.29
2023-03-04T03:50:03.791Z,6.02
2023-03-04T03:51:03.827Z,3.81
2023-03-04T03:52:03.671Z,4.51
2023-03-04T03:53:03.910Z,5.28
2023-03-04T03:54:03.714Z,3.79
2023-03-04T03:55:04.679Z,5.29
2023-03-04T03:56:03.749Z,6.82
2023-03-04T03:57:04.590Z,3.43
2023-03-04T03:58:04.378Z,4.82
2023-03-04T03:59:04.527Z,5.92
2023-03-04T04:00:04.157Z,2.98
2023-03-04T04:01:04.483Z,5.08
2023-03-04T04:02:04.363Z,5.08
2023-03-04T04:03:04.523Z,4.18
2023-03-04T04:04:04.201Z,4.14
2023-03-04T04:05:03.787Z,5
2023-03-04T04:06:04.270Z,5.14
2023-03-04T04:07:04.123Z,4.5
2023-03-04T04:08:03.901Z,5.18
2023-03-04T04:09:03.883Z,3.35
2023-03-04T04:10:03.900Z,6.96
2023-03-04T04:11:03.894Z,5.78
2023-03-04T04:12:03.788Z,3.04
2023-03-04T04:13:03.486Z,4.81
2023-03-04T04:14:04.613Z,5.98
2023-03-04T04:15:04.423Z,5.71
2023-03-04T04:16:03.581Z,4.09
2023-03-04T04:17:04.474Z,4.91
2023-03-04T04:18:04.360Z,3.12
2023-03-04T04:19:04.330Z,3.55
2023-03-04T04:20:04.013Z,4.9
2023-03-04T04:21:04.285Z,3.58
2023-03-04T04:22:04.033Z,6.06
2023-03-04T04:23:04.157Z,4.34
2023-03-04T04:24:03.811Z,3.24
2023-03-04T04:25:04.010Z,5.08
2023-03-04T04:26:04.165Z,4.42
2023-03-04T04:27:03.779Z,5.25
2023-03-04T04:28:03.929Z,4.44
2023-03-04T04:29:03.614Z,4.39
2023-03-04T04:30:03.752Z,4.39
2023-03-04T04:31:04.824Z,3.76
2023-03-04T04:32:04.753Z,5.69
2023-03-04T04:33:04.492Z,4.66
2023-03-04T04:34:04.379Z,5.42
2023-03-04T04:35:04.108Z,5.69
2023-03-04T04:36:04.132Z,5.52
2023-03-04T04:37:04.105Z,4.04
2023-03-04T04:38:03.997Z,5.36
2023-03-04T04:39:03.685Z,4.94
2023-03-04T04:40:03.689Z,4.19
2023-03-04T04:41:03.845Z,3.74
2023-03-04T04:42:03.791Z,3.68
2023-03-04T04:43:03.499Z,4.8
2023-03-04T04:44:04.614Z,5.55
2023-03-04T04:45:04.504Z,4.17
2023-03-04T04:46:04.139Z,5.22
2023-03-04T04:47:03.675Z,5.09
2023-03-04T04:48:03.857Z,5.38
2023-03-04T04:49:03.637Z,4.56
2023-03-04T04:50:04.516Z,5.23
2023-03-04T04:51:03.427Z,5.68
2023-03-04T04:52:04.496Z,5.68
2023-03-04T04:53:04.449Z,4.15
2023-03-04T04:54:04.278Z,4.01
2023-03-04T04:55:04.312Z,3.35
2023-03-04T04:56:04.262Z,4.99
2023-03-04T04:57:04.079Z,4.96
2023-03-04T04:58:03.998Z,3.37
2023-03-04T04:59:03.806Z,3.12
2023-03-04T05:00:03.828Z,6.13
2023-03-04T05:01:04.146Z,3.92
2023-03-04T05:02:03.895Z,4.16
2023-03-04T05:03:03.638Z,4.36
2023-03-04T05:04:04.714Z,4.38
2023-03-04T05:05:04.507Z,6.15
2023-03-04T05:06:04.432Z,3.35
2023-03-04T05:07:04.231Z,5.23
2023-03-04T05:08:04.156Z,5.62
2023-03-04T05:09:04.151Z,4.16
2023-03-04T05:10:04.169Z,3.82
2023-03-04T05:11:04.075Z,3.34
2023-03-04T05:12:04.153Z,3.26
2023-03-04T05:13:03.807Z,5.11
2023-03-04T05:14:03.782Z,5.71
2023-03-04T05:15:03.756Z,4.66
2023-03-04T05:16:04.026Z,4.89
2023-03-04T05:17:03.954Z,4.89
2023-03-04T05:18:03.807Z,7.89
2023-03-04T05:19:04.255Z,5.79
2023-03-04T05:20:04.718Z,7.54
2023-03-04T05:21:03.735Z,4.94
2023-03-04T05:22:04.705Z,4.79
2023-03-04T05:23:04.463Z,5.19
2023-03-04T05:24:04.436Z,5.21
2023-03-04T05:25:04.454Z,6.84
2023-03-04T05:26:04.166Z,3.68
2023-03-04T05:27:03.790Z,4.78
2023-03-04T05:28:04.020Z,2.63
2023-03-04T05:29:03.897Z,3.69
2023-03-04T05:30:03.690Z,4.85
2023-03-04T05:31:04.242Z,3.18
2023-03-04T05:32:03.993Z,3.64
2023-03-04T05:33:04.152Z,5.23
2023-03-04T05:34:03.834Z,3.7
2023-03-04T05:35:04.734Z,4.35
2023-03-04T05:36:04.032Z,4.74
2023-03-04T05:37:04.057Z,6.71
2023-03-04T05:38:03.921Z,4.81
2023-03-04T05:39:03.498Z,2.74
2023-03-04T05:40:03.676Z,3.12
2023-03-04T05:41:03.873Z,5.12
2023-03-04T05:42:03.748Z,5.46
2023-03-04T05:43:03.746Z,5.46
2023-03-04T05:44:04.353Z,6.39
2023-03-04T05:45:04.561Z,3.59
2023-03-04T05:46:04.478Z,5.76
2023-03-04T05:47:04.289Z,5.31
2023-03-04T05:48:04.297Z,3.15
2023-03-04T05:49:04.180Z,3.56
2023-03-04T05:50:04.199Z,4.72
2023-03-04T05:51:04.223Z,4.82
2023-03-04T05:52:03.799Z,3.72
2023-03-04T05:53:03.900Z,3.9
2023-03-04T05:54:03.814Z,4.56
2023-03-04T05:55:04.533Z,4.41
2023-03-04T05:56:04.490Z,5.38
2023-03-04T05:57:04.713Z,5.75
2023-03-04T05:58:04.292Z,3.81
2023-03-04T05:59:04.139Z,5.89
2023-03-04T06:00:04.089Z,3.19
2023-03-04T06:01:04.039Z,6.13
2023-03-04T06:02:03.887Z,3.44
2023-03-04T06:03:03.968Z,4.58
2023-03-04T06:04:03.825Z,3.83
2023-03-04T06:05:04.475Z,4.21
2023-03-04T06:06:03.533Z,4.22
2023-03-04T06:07:04.544Z,3.65
2023-03-04T06:08:04.686Z,4.25
2023-03-04T06:09:04.226Z,5.88
2023-03-04T06:10:04.210Z,4.35
2023-03-04T06:11:04.083Z,3.76
2023-03-04T06:12:03.919Z,4.05
2023-03-04T06:13:03.904Z,4.78
2023-03-04T06:14:03.948Z,5.03
2023-03-04T06:15:03.760Z,6.69
2023-03-04T06:16:03.740Z,8.24
2023-03-04T06:17:03.864Z,3.34
2023-03-04T06:18:03.736Z,6.65
2023-03-04T06:19:04.513Z,6.08
2023-03-04T06:20:04.452Z,4.19
2023-03-04T06:21:04.298Z,4.62
2023-03-04T06:22:04.150Z,4.89
2023-03-04T06:23:03.888Z,5.29
2023-03-04T06:24:03.916Z,3.62
2023-03-04T06:25:03.628Z,5.13
2023-03-04T06:26:04.152Z,4.38
2023-03-04T06:27:03.881Z,5.2
2023-03-04T06:28:03.526Z,4.38
2023-03-04T06:29:03.650Z,2.72
2023-03-04T06:30:03.741Z,4.75
2023-03-04T06:31:04.362Z,4.19
2023-03-04T06:32:03.927Z,5.98
2023-03-04T06:33:03.857Z,5.98
2023-03-04T06:34:03.562Z,5.12
2023-03-04T06:35:04.282Z,3.82
2023-03-04T06:36:03.993Z,9.13
2023-03-04T06:37:03.860Z,4.98
2023-03-04T06:38:03.678Z,5.27
2023-03-04T06:39:04.292Z,3.23
2023-03-04T06:40:04.272Z,6.16
2023-03-04T06:41:04.589Z,3.62
2023-03-04T06:42:04.420Z,2.97
2023-03-04T06:43:04.540Z,4.55
2023-03-04T06:44:04.592Z,5.07
2023-03-04T06:45:04.351Z,3.38
2023-03-04T06:46:04.313Z,3.92
2023-03-04T06:47:04.343Z,5.02
2023-03-04T06:48:04.185Z,2.85
2023-03-04T06:49:04.116Z,3.34
2023-03-04T06:50:04.038Z,2.36
2023-03-04T06:51:03.942Z,4.14
2023-03-04T06:52:03.823Z,4.84
2023-03-04T06:53:04.030Z,4.1
2023-03-04T06:54:03.818Z,4.58
2023-03-04T06:55:03.762Z,4.78
2023-03-04T06:56:03.726Z,4.42
2023-03-04T06:57:03.586Z,4.55
2023-03-04T06:58:04.448Z,4.07
2023-03-04T06:59:04.557Z,3.95
2023-03-04T07:00:04.288Z,4.53
2023-03-04T07:01:04.024Z,5.58
2023-03-04T07:02:03.873Z,5.75
2023-03-04T07:03:03.762Z,5.27
2023-03-04T07:04:04.833Z,3.75
2023-03-04T07:05:04.487Z,4.17
2023-03-04T07:06:04.347Z,3.61
2023-03-04T07:07:04.257Z,5.42
2023-03-04T07:08:04.262Z,5.06
2023-03-04T07:09:03.823Z,5.86
2023-03-04T07:10:03.938Z,4.01
2023-03-04T07:11:03.934Z,4.87
2023-03-04T07:12:03.896Z,5.8
2023-03-04T07:13:04.604Z,4.14
2023-03-04T07:14:04.497Z,5.06
2023-03-04T07:15:04.388Z,6.6
2023-03-04T07:16:04.354Z,4.03
2023-03-04T07:17:03.950Z,5.07
2023-03-04T07:18:03.978Z,5.18
2023-03-04T07:19:03.786Z,3.31
2023-03-04T07:20:03.589Z,4.38
2023-03-04T07:21:03.846Z,5.27
2023-03-04T07:22:03.556Z,3.64
2023-03-04T07:23:03.721Z,7.11
2023-03-04T07:24:04.354Z,5.83
2023-03-04T07:25:04.409Z,6.3
2023-03-04T07:26:04.735Z,6.3
2023-03-04T07:27:04.404Z,6.84
2023-03-04T07:28:04.084Z,2.87
2023-03-04T07:29:04.229Z,2.87
2023-03-04T07:30:04.044Z,2.65
2023-03-04T07:31:04.350Z,3.56
2023-03-04T07:32:04.111Z,4.52
2023-03-04T07:33:03.975Z,3.96
2023-03-04T07:34:03.862Z,5.59
2023-03-04T07:35:04.702Z,6.88
2023-03-04T07:36:03.932Z,5.32
2023-03-04T07:37:03.700Z,4.84
2023-03-04T07:38:03.659Z,5.52
2023-03-04T07:39:04.576Z,5.07
2023-03-04T07:40:04.601Z,3.46
2023-03-04T07:41:04.635Z,4.61
2023-03-04T07:42:04.343Z,4.62
2023-03-04T07:43:04.240Z,4.38
2023-03-04T07:44:04.078Z,3.98
2023-03-04T07:45:04.102Z,4.39
2023-03-04T07:46:04.347Z,4.74
2023-03-04T07:47:04.133Z,6.35
2023-03-04T07:48:03.969Z,4.31
2023-03-04T07:49:03.863Z,5.49
2023-03-04T07:50:03.663Z,3.95
2023-03-04T07:51:03.837Z,5.28
2023-03-04T07:52:03.848Z,5.56
2023-03-04T07:53:03.669Z,4.71
2023-03-04T07:54:03.557Z,5.37
2023-03-04T07:55:04.633Z,5.63
2023-03-04T07:56:04.830Z,4.66
2023-03-04T07:57:04.591Z,3.47
2023-03-04T07:58:04.363Z,4.09
2023-03-04T07:59:04.311Z,3.02
2023-03-04T08:00:04.235Z,4.06
2023-03-04T08:01:04.396Z,4.08
2023-03-04T08:02:04.293Z,5.75
2023-03-04T08:03:04.128Z,4.65
2023-03-04T08:04:04.260Z,4.68
2023-03-04T08:05:03.927Z,3.67
2023-03-04T08:06:04.162Z,4.95
2023-03-04T08:07:04.016Z,3.98
2023-03-04T08:08:03.933Z,3.57
2023-03-04T08:09:03.573Z,4.49
2023-03-04T08:10:04.590Z,3.79
2023-03-04T08:11:04.385Z,2.91
2023-03-04T08:12:04.530Z,3.33
2023-03-04T08:13:04.315Z,3.98
2023-03-04T08:14:04.357Z,3.26
2023-03-04T08:15:04.285Z,3.41
2023-03-04T08:16:04.520Z,3.41
2023-03-04T08:17:04.312Z,2.62
2023-03-04T08:18:03.987Z,2.94
2023-03-04T08:19:03.812Z,3.43
2023-03-04T08:20:04.023Z,2.37
2023-03-04T08:21:04.190Z,3.36
2023-03-04T08:22:03.883Z,3.05
2023-03-04T08:23:04.024Z,2.59
2023-03-04T08:24:04.057Z,2.98
2023-03-04T08:25:04.670Z,2.63
2023-03-04T08:26:03.932Z,3.04
2023-03-04T08:27:03.797Z,3.36
2023-03-04T08:28:04.624Z,2.52
2023-03-04T08:29:04.444Z,3.04
2023-03-04T08:30:04.353Z,2.62
2023-03-04T08:31:03.969Z,2.73
2023-03-04T08:32:04.176Z,2.46
2023-03-04T08:33:03.883Z,2.28
2023-03-04T08:34:03.707Z,3.85
2023-03-04T08:35:04.505Z,3.12
2023-03-04T08:36:03.883Z,2.39
2023-03-04T08:37:03.778Z,2.92
2023-03-04T08:38:04.715Z,2.75
2023-03-04T08:39:04.525Z,4.02
2023-03-04T08:40:04.620Z,3.61
2023-03-04T08:41:03.748Z,2.58
2023-03-04T08:42:04.753Z,2.52
2023-03-04T08:43:04.644Z,3.34
2023-03-04T08:44:04.314Z,3.12
2023-03-04T08:45:04.224Z,3.21
2023-03-04T08:46:04.794Z,1.92
2023-03-04T08:47:04.349Z,3.09
2023-03-04T08:48:04.306Z,2.42
2023-03-04T08:49:04.058Z,2.81
2023-03-04T08:50:03.993Z,3.06
2023-03-04T08:51:04.140Z,2.98
2023-03-04T08:52:03.870Z,2.54
2023-03-04T08:53:03.790Z,3.36
2023-03-04T08:54:03.741Z,2.27
2023-03-04T08:55:03.688Z,3.01
2023-03-04T08:56:03.829Z,2.23
2023-03-04T08:57:03.834Z,2.32
2023-03-04T08:58:03.598Z,1.56
2023-03-04T08:59:04.463Z,3.63
2023-03-04T09:00:04.479Z,2.32
2023-03-04T09:01:03.984Z,2.07
2023-03-04T09:02:04.207Z,2.35
2023-03-04T09:03:03.930Z,2.68
2023-03-04T09:04:03.929Z,2.01
2023-03-04T09:05:03.670Z,2.14
2023-03-04T09:06:04.358Z,2.14
2023-03-04T09:07:04.412Z,3.54
2023-03-04T09:08:04.193Z,3.54
2023-03-04T09:09:03.887Z,3.14
2023-03-04T09:10:03.673Z,1.85
2023-03-04T09:11:04.293Z,2.69
2023-03-04T09:12:04.292Z,2.23
2023-03-04T09:13:04.126Z,3.02
2023-03-04T09:14:04.240Z,1.79
2023-03-04T09:15:13.342Z,1.99
2023-03-04T09:16:04.590Z,2.65
2023-03-04T09:17:03.990Z,3.35
2023-03-04T09:18:04.255Z,2.23
2023-03-04T09:19:03.871Z,3.35
2023-03-04T09:20:06.475Z,2.25
2023-03-04T09:21:04.166Z,2.45
2023-03-04T09:22:04.096Z,2.78
2023-03-04T09:23:03.721Z,2.52
2023-03-04T09:24:03.935Z,1.76
2023-03-04T09:25:04.671Z,2.44
2023-03-04T09:26:03.836Z,2.92
2023-03-04T09:27:03.952Z,1.71
2023-03-04T09:28:03.758Z,2.14
2023-03-04T09:29:03.780Z,2.33
2023-03-04T09:30:03.550Z,2.3
2023-03-04T09:31:04.153Z,2.38
2023-03-04T09:32:03.920Z,2.26
2023-03-04T09:33:03.615Z,2.79
2023-03-04T09:34:04.667Z,2.28
2023-03-04T09:35:04.077Z,1.8
2023-03-04T09:36:04.013Z,3.45
2023-03-04T09:37:03.908Z,2.06
2023-03-04T09:38:04.346Z,2.7
2023-03-04T09:39:03.543Z,2.82
2023-03-04T09:40:04.403Z,2.35
2023-03-04T09:41:03.744Z,2.21
2023-03-04T09:42:04.626Z,3.65
2023-03-04T09:43:04.484Z,1.95
2023-03-04T09:44:04.280Z,2.22
2023-03-04T09:45:04.281Z,1.81
2023-03-04T09:46:04.652Z,2.41
2023-03-04T09:47:04.540Z,2.19
2023-03-04T09:48:04.457Z,3.85
2023-03-04T09:49:05.967Z,1.99
2023-03-04T09:50:04.305Z,2.95
2023-03-04T09:51:03.615Z,1.95
2023-03-04T09:52:04.614Z,2.22
2023-03-04T09:53:04.165Z,2.62
2023-03-04T09:54:04.308Z,4.16
2023-03-04T09:55:06.873Z,2.8
2023-03-04T09:56:04.366Z,2.6
2023-03-04T09:57:04.098Z,2.6
2023-03-04T09:58:04.136Z,1.83
2023-03-04T09:59:03.836Z,2.64
2023-03-04T10:00:03.525Z,2.64
2023-03-04T10:01:06.867Z,1.76
2023-03-04T10:02:03.925Z,3.67
2023-03-04T10:03:03.925Z,2.2
2023-03-04T10:04:04.677Z,2.62
2023-03-04T10:05:04.728Z,2.94
2023-03-04T10:06:04.042Z,3.42
2023-03-04T10:07:03.812Z,4.46
2023-03-04T10:08:04.633Z,2.82
2023-03-04T10:09:04.267Z,2.72
2023-03-04T10:10:04.459Z,2.92
2023-03-04T10:11:04.076Z,2.48
2023-03-04T10:12:04.120Z,2.39
2023-03-04T10:13:04.252Z,2.73
2023-03-04T10:14:04.156Z,3.83
2023-03-04T10:15:03.888Z,1.89
2023-03-04T10:16:04.514Z,3.39
2023-03-04T10:17:04.495Z,2.76
2023-03-04T10:18:04.315Z,2.56
2023-03-04T10:19:04.218Z,2.27
2023-03-04T10:20:04.139Z,2.01
2023-03-04T10:21:04.409Z,2.12
2023-03-04T10:22:04.180Z,2.32
2023-03-04T10:23:04.026Z,2.51
2023-03-04T10:24:04.013Z,4.12
2023-03-04T10:25:03.859Z,2.41
2023-03-04T10:26:03.964Z,3.75
2023-03-04T10:27:03.827Z,1.61
2023-03-04T10:28:03.714Z,3.72
2023-03-04T10:29:03.548Z,2.32
2023-03-04T10:30:04.525Z,2.98
2023-03-04T10:31:04.411Z,3.5
2023-03-04T10:32:04.724Z,2.24
2023-03-04T10:33:04.231Z,2.48
2023-03-04T10:34:04.143Z,3.28
2023-03-04T10:35:03.888Z,2.62
2023-03-04T10:36:04.400Z,3.16
2023-03-04T10:37:04.210Z,2.48
2023-03-04T10:38:03.996Z,2.61
2023-03-04T10:39:03.731Z,2.04
2023-03-04T10:40:03.677Z,1.78
2023-03-04T10:41:03.959Z,2.28
2023-03-04T10:42:04.011Z,2.62
2023-03-04T10:43:03.774Z,3.92
2023-03-04T10:44:04.535Z,2.32
2023-03-04T10:45:04.214Z,1.34
2023-03-04T10:46:04.121Z,2.09
2023-03-04T10:47:03.729Z,1.85
2023-03-04T10:48:03.661Z,1.85
2023-03-04T10:49:03.945Z,1.94
2023-03-04T10:50:03.801Z,2.33
2023-03-04T10:51:03.816Z,3.27
2023-03-04T10:52:03.636Z,2.52
2023-03-04T10:53:03.748Z,2.43
2023-03-04T10:54:04.735Z,2.16
2023-03-04T10:55:04.632Z,1.91
2023-03-04T10:56:03.939Z,1.91
2023-03-04T10:57:03.718Z,2.24
2023-03-04T10:58:03.625Z,1.56
2023-03-04T10:59:03.632Z,2.66
2023-03-04T11:00:04.498Z,2.05
2023-03-04T11:01:04.721Z,1.95
2023-03-04T11:02:04.320Z,1.78
2023-03-04T11:03:04.212Z,1.52
2023-03-04T11:04:04.224Z,2.15
2023-03-04T11:05:04.176Z,2.29
2023-03-04T11:06:04.198Z,2.56
2023-03-04T11:07:04.120Z,3.56
2023-03-04T11:08:04.292Z,2.09
2023-03-04T11:09:04.023Z,2
2023-03-04T11:10:03.996Z,2.59
2023-03-04T11:11:03.984Z,2.75
2023-03-04T11:12:03.800Z,3.26
2023-03-04T11:13:03.804Z,2.01
2023-03-04T11:14:03.622Z,1.37
2023-03-04T11:15:04.550Z,2.04
2023-03-04T11:16:03.535Z,2.5
2023-03-04T11:17:04.437Z,2.11
2023-03-04T11:18:04.557Z,2.05
2023-03-04T11:19:04.543Z,2.09
2023-03-04T11:20:04.505Z,2.09
2023-03-04T11:21:04.648Z,1.66
2023-03-04T11:22:04.372Z,2.21
2023-03-04T11:23:06.596Z,2.39
2023-03-04T11:24:04.233Z,2.35
2023-03-04T11:25:03.701Z,2.92
2023-03-04T11:26:04.175Z,2.04
2023-03-04T11:27:03.720Z,2.35
2023-03-04T11:28:03.894Z,3
2023-03-04T11:29:03.707Z,2.05
2023-03-04T11:30:04.631Z,2.8
2023-03-04T11:31:03.739Z,2.09
2023-03-04T11:32:03.933Z,1.92
2023-03-04T11:33:04.533Z,2.11
2023-03-04T11:34:04.476Z,2.21
2023-03-04T11:35:04.164Z,2.13
2023-03-04T11:36:03.949Z,2.26
2023-03-04T11:37:03.904Z,2.69
2023-03-04T11:38:03.764Z,2.99
2023-03-04T11:39:04.522Z,2.99
2023-03-04T11:40:04.328Z,1.95
2023-03-04T11:41:04.426Z,2.67
2023-03-04T11:42:04.655Z,2.67
2023-03-04T11:43:04.366Z,3.18
2023-03-04T11:44:04.210Z,2.35
2023-03-04T11:45:04.127Z,2.88
2023-03-04T11:46:04.634Z,2.19
2023-03-04T11:47:04.275Z,2.55
2023-03-04T11:48:04.110Z,2.99
2023-03-04T11:49:04.076Z,1.92
2023-03-04T11:50:04.077Z,2.15
2023-03-04T11:51:04.136Z,1.94
2023-03-04T11:52:03.987Z,3.01
2023-03-04T11:53:03.744Z,2.64
2023-03-04T11:54:04.543Z,1.92
2023-03-04T11:55:04.370Z,2.19
2023-03-04T11:56:03.870Z,1.95
2023-03-04T11:57:03.686Z,2.1
2023-03-04T11:58:03.708Z,2.75
2023-03-04T11:59:04.498Z,1.31
2023-03-04T12:00:04.569Z,1.93
2023-03-04T12:01:03.784Z,1.84
2023-03-04T12:02:03.771Z,2.62
2023-03-04T12:03:04.574Z,1.58
2023-03-04T12:04:04.696Z,2.14
2023-03-04T12:05:04.637Z,3.02
2023-03-04T12:06:03.776Z,2.71
2023-03-04T12:07:03.353Z,2.55
2023-03-04T12:08:04.531Z,1.91
2023-03-04T12:09:04.508Z,2.36
2023-03-04T12:10:04.358Z,1.72
2023-03-04T12:11:04.608Z,1.85
2023-03-04T12:12:04.587Z,2.46
2023-03-04T12:13:04.354Z,2.2
2023-03-04T12:14:04.263Z,1.91
2023-03-04T12:15:03.786Z,1.51
2023-03-04T12:16:04.337Z,2.72
2023-03-04T12:17:03.976Z,3.26
2023-03-04T12:18:03.922Z,1.74
2023-03-04T12:19:03.943Z,1.66
2023-03-04T12:20:03.780Z,3.45
2023-03-04T12:21:03.708Z,1.99
2023-03-04T12:22:04.564Z,2.64
2023-03-04T12:23:04.410Z,2.43
2023-03-04T12:24:04.366Z,2.14
2023-03-04T12:25:04.535Z,3.28
2023-03-04T12:26:04.118Z,1.94
2023-03-04T12:27:03.998Z,1.58
2023-03-04T12:28:03.778Z,1.58
2023-03-04T12:29:04.417Z,2.19
2023-03-04T12:30:04.560Z,2.51
2023-03-04T12:31:04.710Z,2.51
2023-03-04T12:32:04.443Z,3.19
2023-03-04T12:33:04.383Z,2.75
2023-03-04T12:34:04.196Z,2.48
2023-03-04T12:35:03.966Z,2.18
2023-03-04T12:36:04.200Z,1.75
2023-03-04T12:37:04.128Z,2.34
2023-03-04T12:38:04.209Z,3.78
2023-03-04T12:39:03.965Z,1.68
2023-03-04T12:40:03.683Z,1.65
2023-03-04T12:41:04.057Z,2.33
2023-03-04T12:42:03.827Z,1.04
2023-03-04T12:43:04.678Z,2.28
2023-03-04T12:44:04.395Z,1.91
2023-03-04T12:45:04.451Z,1.62
2023-03-04T12:46:04.729Z,1.43
2023-03-04T12:47:04.368Z,1.71
2023-03-04T12:48:04.432Z,2.38
2023-03-04T12:49:04.355Z,2.09
2023-03-04T12:50:04.203Z,1.91
2023-03-04T12:51:03.953Z,1.96
2023-03-04T12:52:03.782Z,2.16
2023-03-04T12:53:04.583Z,2.09
2023-03-04T12:54:04.402Z,2.14
2023-03-04T12:55:04.350Z,2.64
2023-03-04T12:56:04.598Z,1.78
2023-03-04T12:57:04.569Z,1.7
2023-03-04T12:58:04.197Z,2.04
2023-03-04T12:59:04.089Z,1.75
2023-03-04T13:00:03.982Z,1.46
2023-03-04T13:01:04.049Z,3.91
2023-03-04T13:02:07.281Z,2.61
2023-03-04T13:03:03.981Z,1.76
2023-03-04T13:04:03.801Z,2.65
2023-03-04T13:05:03.707Z,1.82
2023-03-04T13:06:04.188Z,1.67
2023-03-04T13:07:04.134Z,1.96
2023-03-04T13:08:03.765Z,3.03
2023-03-04T13:09:03.656Z,2.41
2023-03-04T13:10:04.748Z,2.07
2023-03-04T13:11:03.919Z,2.16
2023-03-04T13:12:03.754Z,1.95
2023-03-04T13:13:03.724Z,1.88
2023-03-04T13:14:04.378Z,3.48
2023-03-04T13:15:04.326Z,2.61
2023-03-04T13:16:04.593Z,2.51
2023-03-04T13:17:04.123Z,1.92
2023-03-04T13:18:04.195Z,2.65
2023-03-04T13:19:04.114Z,2.65
2023-03-04T13:20:03.745Z,2.11
2023-03-04T13:21:04.014Z,2.11